Terminal Aerodrome Forecast
Issued by NWS

Home | Current Version | Previous Version | Text Only | Print | Product List | Glossary Off
Versions: 1 2 3 4 5 6 7 8 9 10 11 12 13 14 15 16 17 18 19 20 21 22 23 24 25

319
FTUS43 KFGF 222341
TAFBJI
TAF
KBJI 222341Z 2300/2324 35010KT 2SM -SN BR OVC012
     FM230100 36009KT P6SM OVC015
     FM230300 36008KT P6SM BKN020
     FM230800 36007KT P6SM BKN040
     FM231500 01006KT P6SM SCT080=

USA.gov is the U.S. government's official web portal to all federal, state and local government web resources and services.